sensor_id;sensor_type;location;lat;lon;timestamp;temperature;humidity
26909;DHT22;14477;51.038;4.588;2023-12-14T00:00:48;11.40;99.90
26909;DHT22;14477;51.038;4.588;2023-12-14T00:03:14;11.40;99.90
26909;DHT22;14477;51.038;4.588;2023-12-14T00:05:40;11.40;99.90
26909;DHT22;14477;51.038;4.588;2023-12-14T00:08:06;11.40;99.90
26909;DHT22;14477;51.038;4.588;2023-12-14T00:10:31;11.40;99.90
26909;DHT22;14477;51.038;4.588;2023-12-14T00:12:57;11.40;99.90
26909;DHT22;14477;51.038;4.588;2023-12-14T00:15:23;11.40;99.90
26909;DHT22;14477;51.038;4.588;2023-12-14T00:17:49;11.40;99.90
26909;DHT22;14477;51.038;4.588;2023-12-14T00:20:14;11.40;99.90
26909;DHT22;14477;51.038;4.588;2023-12-14T00:22:40;11.40;99.90
26909;DHT22;14477;51.038;4.588;2023-12-14T00:25:06;11.40;99.90
26909;DHT22;14477;51.038;4.588;2023-12-14T00:27:32;11.40;99.90
26909;DHT22;14477;51.038;4.588;2023-12-14T00:29:58;11.40;99.90
26909;DHT22;14477;51.038;4.588;2023-12-14T00:32:24;11.40;99.90
26909;DHT22;14477;51.038;4.588;2023-12-14T00:34:49;11.40;99.90
26909;DHT22;14477;51.038;4.588;2023-12-14T00:37:15;11.40;99.90
26909;DHT22;14477;51.038;4.588;2023-12-14T00:39:41;11.40;99.90
26909;DHT22;14477;51.038;4.588;2023-12-14T00:42:06;11.40;99.90
26909;DHT22;14477;51.038;4.588;2023-12-14T00:44:32;11.40;99.90
26909;DHT22;14477;51.038;4.588;2023-12-14T00:46:58;11.40;99.90
26909;DHT22;14477;51.038;4.588;2023-12-14T00:49:25;11.40;99.90
26909;DHT22;14477;51.038;4.588;2023-12-14T00:51:53;11.40;99.90
26909;DHT22;14477;51.038;4.588;2023-12-14T00:54:19;11.40;99.90
26909;DHT22;14477;51.038;4.588;2023-12-14T00:56:45;11.40;99.90
26909;DHT22;14477;51.038;4.588;2023-12-14T00:59:10;11.40;99.90
26909;DHT22;14477;51.038;4.588;2023-12-14T01:01:36;11.40;99.90
26909;DHT22;14477;51.038;4.588;2023-12-14T01:04:02;11.40;99.90
26909;DHT22;14477;51.038;4.588;2023-12-14T01:06:28;11.40;99.90
26909;DHT22;14477;51.038;4.588;2023-12-14T01:08:54;11.40;99.90
26909;DHT22;14477;51.038;4.588;2023-12-14T01:11:19;11.30;99.90
26909;DHT22;14477;51.038;4.588;2023-12-14T01:13:45;11.30;99.90
26909;DHT22;14477;51.038;4.588;2023-12-14T01:16:11;11.30;99.90
26909;DHT22;14477;51.038;4.588;2023-12-14T01:18:37;11.30;99.90
26909;DHT22;14477;51.038;4.588;2023-12-14T01:21:02;11.20;99.90
26909;DHT22;14477;51.038;4.588;2023-12-14T01:23:28;11.20;99.90
26909;DHT22;14477;51.038;4.588;2023-12-14T01:25:54;11.20;99.90
26909;DHT22;14477;51.038;4.588;2023-12-14T01:28:19;11.10;99.90
26909;DHT22;14477;51.038;4.588;2023-12-14T01:30:46;11.10;99.90
26909;DHT22;14477;51.038;4.588;2023-12-14T01:33:11;11.00;99.90
26909;DHT22;14477;51.038;4.588;2023-12-14T01:35:37;11.00;99.90
26909;DHT22;14477;51.038;4.588;2023-12-14T01:38:03;10.90;99.90
26909;DHT22;14477;51.038;4.588;2023-12-14T01:40:29;10.90;99.90
26909;DHT22;14477;51.038;4.588;2023-12-14T01:43:06;10.90;99.90
26909;DHT22;14477;51.038;4.588;2023-12-14T01:45:33;10.80;99.90
26909;DHT22;14477;51.038;4.588;2023-12-14T01:47:59;10.80;99.90
26909;DHT22;14477;51.038;4.588;2023-12-14T01:50:24;10.80;99.90
26909;DHT22;14477;51.038;4.588;2023-12-14T01:52:50;10.70;99.90
26909;DHT22;14477;51.038;4.588;2023-12-14T01:55:16;10.70;99.90
26909;DHT22;14477;51.038;4.588;2023-12-14T01:57:41;10.70;99.90
26909;DHT22;14477;51.038;4.588;2023-12-14T02:00:29;10.70;99.90
26909;DHT22;14477;51.038;4.588;2023-12-14T02:02:57;10.70;99.90
26909;DHT22;14477;51.038;4.588;2023-12-14T02:05:22;10.70;99.90
26909;DHT22;14477;51.038;4.588;2023-12-14T02:07:48;10.60;99.90
26909;DHT22;14477;51.038;4.588;2023-12-14T02:10:15;10.60;99.90
26909;DHT22;14477;51.038;4.588;2023-12-14T02:12:41;10.60;99.90
26909;DHT22;14477;51.038;4.588;2023-12-14T02:15:07;10.60;99.90
26909;DHT22;14477;51.038;4.588;2023-12-14T02:17:32;10.60;99.90
26909;DHT22;14477;51.038;4.588;2023-12-14T02:19:58;10.50;99.90
26909;DHT22;14477;51.038;4.588;2023-12-14T02:22:26;10.50;99.90
26909;DHT22;14477;51.038;4.588;2023-12-14T02:24:52;10.50;99.90
26909;DHT22;14477;51.038;4.588;2023-12-14T02:27:17;10.50;99.90
26909;DHT22;14477;51.038;4.588;2023-12-14T02:29:43;10.50;99.90
26909;DHT22;14477;51.038;4.588;2023-12-14T02:32:09;10.40;99.90
26909;DHT22;14477;51.038;4.588;2023-12-14T02:34:35;10.40;99.90
26909;DHT22;14477;51.038;4.588;2023-12-14T02:37:00;10.40;99.90
26909;DHT22;14477;51.038;4.588;2023-12-14T02:39:26;10.40;99.90
26909;DHT22;14477;51.038;4.588;2023-12-14T02:41:52;10.40;99.90
26909;DHT22;14477;51.038;4.588;2023-12-14T02:44:17;10.40;99.90
26909;DHT22;14477;51.038;4.588;2023-12-14T02:46:43;10.30;99.90
26909;DHT22;14477;51.038;4.588;2023-12-14T02:49:09;10.40;99.90
26909;DHT22;14477;51.038;4.588;2023-12-14T02:51:38;10.30;99.90
26909;DHT22;14477;51.038;4.588;2023-12-14T02:54:03;10.30;99.90
26909;DHT22;14477;51.038;4.588;2023-12-14T02:56:29;10.30;99.90
26909;DHT22;14477;51.038;4.588;2023-12-14T02:58:55;10.30;99.90
26909;DHT22;14477;51.038;4.588;2023-12-14T03:01:21;10.30;99.90
26909;DHT22;14477;51.038;4.588;2023-12-14T03:03:47;10.30;99.90
26909;DHT22;14477;51.038;4.588;2023-12-14T03:06:13;10.30;99.90
26909;DHT22;14477;51.038;4.588;2023-12-14T03:08:39;10.30;99.90
26909;DHT22;14477;51.038;4.588;2023-12-14T03:11:05;10.30;99.90
26909;DHT22;14477;51.038;4.588;2023-12-14T03:13:31;10.30;99.90
26909;DHT22;14477;51.038;4.588;2023-12-14T03:15:57;10.20;99.90
26909;DHT22;14477;51.038;4.588;2023-12-14T03:18:22;10.30;99.90
26909;DHT22;14477;51.038;4.588;2023-12-14T03:20:48;10.30;99.90
26909;DHT22;14477;51.038;4.588;2023-12-14T03:23:14;10.30;99.90
26909;DHT22;14477;51.038;4.588;2023-12-14T03:25:40;10.30;99.90
26909;DHT22;14477;51.038;4.588;2023-12-14T03:28:06;10.30;99.90
26909;DHT22;14477;51.038;4.588;2023-12-14T03:30:31;10.20;99.90
26909;DHT22;14477;51.038;4.588;2023-12-14T03:32:57;10.10;99.90
26909;DHT22;14477;51.038;4.588;2023-12-14T03:35:23;10.20;99.90
26909;DHT22;14477;51.038;4.588;2023-12-14T03:37:49;10.10;99.90
26909;DHT22;14477;51.038;4.588;2023-12-14T03:40:15;10.10;99.90
26909;DHT22;14477;51.038;4.588;2023-12-14T03:42:40;10.00;99.90
26909;DHT22;14477;51.038;4.588;2023-12-14T03:45:06;10.00;99.90
26909;DHT22;14477;51.038;4.588;2023-12-14T03:47:33;10.00;99.90
26909;DHT22;14477;51.038;4.588;2023-12-14T03:49:58;9.90;99.90
26909;DHT22;14477;51.038;4.588;2023-12-14T03:52:24;9.90;99.90
26909;DHT22;14477;51.038;4.588;2023-12-14T03:54:51;9.90;99.90
26909;DHT22;14477;51.038;4.588;2023-12-14T03:57:16;9.80;99.90
26909;DHT22;14477;51.038;4.588;2023-12-14T03:59:42;9.90;99.90
26909;DHT22;14477;51.038;4.588;2023-12-14T04:02:08;9.90;99.90
26909;DHT22;14477;51.038;4.588;2023-12-14T04:04:33;9.90;99.90
26909;DHT22;14477;51.038;4.588;2023-12-14T04:06:59;9.80;99.90
26909;DHT22;14477;51.038;4.588;2023-12-14T04:09:25;9.80;99.90
26909;DHT22;14477;51.038;4.588;2023-12-14T04:11:51;9.70;99.90
26909;DHT22;14477;51.038;4.588;2023-12-14T04:14:17;9.70;99.90
26909;DHT22;14477;51.038;4.588;2023-12-14T04:16:42;9.70;99.90
26909;DHT22;14477;51.038;4.588;2023-12-14T04:19:08;9.70;99.90
26909;DHT22;14477;51.038;4.588;2023-12-14T04:21:36;9.70;99.90
26909;DHT22;14477;51.038;4.588;2023-12-14T04:24:02;9.60;99.90
26909;DHT22;14477;51.038;4.588;2023-12-14T04:26:28;9.60;99.90
26909;DHT22;14477;51.038;4.588;2023-12-14T04:28:54;9.60;99.90
26909;DHT22;14477;51.038;4.588;2023-12-14T04:31:20;9.60;99.90
26909;DHT22;14477;51.038;4.588;2023-12-14T04:33:46;9.60;99.90
26909;DHT22;14477;51.038;4.588;2023-12-14T04:36:12;9.60;99.90
26909;DHT22;14477;51.038;4.588;2023-12-14T04:38:37;9.60;99.90
26909;DHT22;14477;51.038;4.588;2023-12-14T04:41:03;9.60;99.90
26909;DHT22;14477;51.038;4.588;2023-12-14T04:43:29;9.60;99.90
26909;DHT22;14477;51.038;4.588;2023-12-14T04:45:56;9.60;99.90
26909;DHT22;14477;51.038;4.588;2023-12-14T04:48:21;9.60;99.90
26909;DHT22;14477;51.038;4.588;2023-12-14T04:50:47;9.60;99.90
26909;DHT22;14477;51.038;4.588;2023-12-14T04:53:14;9.50;99.90
26909;DHT22;14477;51.038;4.588;2023-12-14T04:55:39;9.60;99.90
26909;DHT22;14477;51.038;4.588;2023-12-14T04:58:05;9.50;99.90
26909;DHT22;14477;51.038;4.588;2023-12-14T05:00:31;9.60;99.90
26909;DHT22;14477;51.038;4.588;2023-12-14T05:02:57;9.50;99.90
26909;DHT22;14477;51.038;4.588;2023-12-14T05:05:23;9.60;99.90
26909;DHT22;14477;51.038;4.588;2023-12-14T05:07:48;9.60;99.90
26909;DHT22;14477;51.038;4.588;2023-12-14T05:10:14;9.60;99.90
26909;DHT22;14477;51.038;4.588;2023-12-14T05:12:40;9.60;99.90
26909;DHT22;14477;51.038;4.588;2023-12-14T05:15:06;9.60;99.90
26909;DHT22;14477;51.038;4.588;2023-12-14T05:17:32;9.50;99.90
26909;DHT22;14477;51.038;4.588;2023-12-14T05:20:00;9.60;99.90
26909;DHT22;14477;51.038;4.588;2023-12-14T05:22:26;9.50;99.90
26909;DHT22;14477;51.038;4.588;2023-12-14T05:24:51;9.50;99.90
26909;DHT22;14477;51.038;4.588;2023-12-14T05:27:17;9.60;99.90
26909;DHT22;14477;51.038;4.588;2023-12-14T05:29:43;9.60;99.90
26909;DHT22;14477;51.038;4.588;2023-12-14T05:32:09;9.50;99.90
26909;DHT22;14477;51.038;4.588;2023-12-14T05:34:34;9.50;99.90
26909;DHT22;14477;51.038;4.588;2023-12-14T05:37:00;9.50;99.90
26909;DHT22;14477;51.038;4.588;2023-12-14T05:39:26;9.50;99.90
26909;DHT22;14477;51.038;4.588;2023-12-14T05:41:52;9.60;99.90
26909;DHT22;14477;51.038;4.588;2023-12-14T05:44:18;9.50;99.90
26909;DHT22;14477;51.038;4.588;2023-12-14T05:46:43;9.50;99.90
26909;DHT22;14477;51.038;4.588;2023-12-14T05:49:09;9.50;99.90
26909;DHT22;14477;51.038;4.588;2023-12-14T05:51:35;9.50;99.90
26909;DHT22;14477;51.038;4.588;2023-12-14T05:54:02;9.50;99.90
26909;DHT22;14477;51.038;4.588;2023-12-14T05:56:28;9.50;99.90
26909;DHT22;14477;51.038;4.588;2023-12-14T05:58:55;9.50;99.90
26909;DHT22;14477;51.038;4.588;2023-12-14T06:01:21;9.50;99.90
26909;DHT22;14477;51.038;4.588;2023-12-14T06:03:46;9.50;99.90
26909;DHT22;14477;51.038;4.588;2023-12-14T06:06:12;9.50;99.90
26909;DHT22;14477;51.038;4.588;2023-12-14T06:08:41;9.50;99.90
26909;DHT22;14477;51.038;4.588;2023-12-14T06:11:07;9.50;99.90
26909;DHT22;14477;51.038;4.588;2023-12-14T06:13:33;9.50;99.90
26909;DHT22;14477;51.038;4.588;2023-12-14T06:15:59;9.40;99.90
26909;DHT22;14477;51.038;4.588;2023-12-14T06:18:25;9.40;99.90
26909;DHT22;14477;51.038;4.588;2023-12-14T06:20:51;9.40;99.90
26909;DHT22;14477;51.038;4.588;2023-12-14T06:23:19;9.40;99.90
26909;DHT22;14477;51.038;4.588;2023-12-14T06:25:45;9.50;99.90
26909;DHT22;14477;51.038;4.588;2023-12-14T06:28:11;9.40;99.90
26909;DHT22;14477;51.038;4.588;2023-12-14T06:30:37;9.40;99.90
26909;DHT22;14477;51.038;4.588;2023-12-14T06:33:03;9.40;99.90
26909;DHT22;14477;51.038;4.588;2023-12-14T06:35:29;9.40;99.90
26909;DHT22;14477;51.038;4.588;2023-12-14T06:37:55;9.40;99.90
26909;DHT22;14477;51.038;4.588;2023-12-14T06:40:21;9.40;99.90
26909;DHT22;14477;51.038;4.588;2023-12-14T06:42:46;9.40;99.90
26909;DHT22;14477;51.038;4.588;2023-12-14T06:45:13;9.40;99.90
26909;DHT22;14477;51.038;4.588;2023-12-14T06:47:38;9.30;99.90
26909;DHT22;14477;51.038;4.588;2023-12-14T06:50:07;9.30;99.90
26909;DHT22;14477;51.038;4.588;2023-12-14T06:52:33;9.30;99.90
26909;DHT22;14477;51.038;4.588;2023-12-14T06:54:59;9.30;99.90
26909;DHT22;14477;51.038;4.588;2023-12-14T06:57:25;9.30;99.90
26909;DHT22;14477;51.038;4.588;2023-12-14T06:59:50;9.30;99.90
26909;DHT22;14477;51.038;4.588;2023-12-14T07:02:16;9.30;99.90
26909;DHT22;14477;51.038;4.588;2023-12-14T07:04:42;9.30;99.90
26909;DHT22;14477;51.038;4.588;2023-12-14T07:07:09;9.30;99.90
26909;DHT22;14477;51.038;4.588;2023-12-14T07:09:35;9.40;99.90
26909;DHT22;14477;51.038;4.588;2023-12-14T07:12:01;9.30;99.90
26909;DHT22;14477;51.038;4.588;2023-12-14T07:14:28;9.30;99.90
26909;DHT22;14477;51.038;4.588;2023-12-14T07:16:54;9.30;99.90
26909;DHT22;14477;51.038;4.588;2023-12-14T07:19:19;9.30;99.90
26909;DHT22;14477;51.038;4.588;2023-12-14T07:21:45;9.20;99.90
26909;DHT22;14477;51.038;4.588;2023-12-14T07:24:11;9.20;99.90
26909;DHT22;14477;51.038;4.588;2023-12-14T07:26:37;9.10;99.90
26909;DHT22;14477;51.038;4.588;2023-12-14T07:29:02;9.00;99.90
26909;DHT22;14477;51.038;4.588;2023-12-14T07:31:28;9.00;99.90
26909;DHT22;14477;51.038;4.588;2023-12-14T07:33:55;8.90;99.90
26909;DHT22;14477;51.038;4.588;2023-12-14T07:36:21;8.80;99.90
26909;DHT22;14477;51.038;4.588;2023-12-14T07:38:48;8.70;99.90
26909;DHT22;14477;51.038;4.588;2023-12-14T07:41:14;8.70;99.90
26909;DHT22;14477;51.038;4.588;2023-12-14T07:43:39;8.60;99.90
26909;DHT22;14477;51.038;4.588;2023-12-14T07:46:05;8.50;99.90
26909;DHT22;14477;51.038;4.588;2023-12-14T07:48:31;8.40;99.90
26909;DHT22;14477;51.038;4.588;2023-12-14T07:50:57;8.40;99.90
26909;DHT22;14477;51.038;4.588;2023-12-14T07:53:23;8.30;99.90
26909;DHT22;14477;51.038;4.588;2023-12-14T07:55:50;8.30;99.90
26909;DHT22;14477;51.038;4.588;2023-12-14T07:58:15;8.20;99.90
26909;DHT22;14477;51.038;4.588;2023-12-14T08:00:41;8.20;99.90
26909;DHT22;14477;51.038;4.588;2023-12-14T08:03:07;8.10;99.90
26909;DHT22;14477;51.038;4.588;2023-12-14T08:05:33;8.10;99.90
26909;DHT22;14477;51.038;4.588;2023-12-14T08:07:59;8.00;99.90
26909;DHT22;14477;51.038;4.588;2023-12-14T08:10:25;8.00;99.90
26909;DHT22;14477;51.038;4.588;2023-12-14T08:12:50;8.10;99.90
26909;DHT22;14477;51.038;4.588;2023-12-14T08:15:17;8.10;99.90
26909;DHT22;14477;51.038;4.588;2023-12-14T08:17:43;8.20;99.90
26909;DHT22;14477;51.038;4.588;2023-12-14T08:20:09;8.20;99.90
26909;DHT22;14477;51.038;4.588;2023-12-14T08:22:37;8.30;99.90
26909;DHT22;14477;51.038;4.588;2023-12-14T08:25:03;8.40;99.90
26909;DHT22;14477;51.038;4.588;2023-12-14T08:27:29;8.40;99.90
26909;DHT22;14477;51.038;4.588;2023-12-14T08:29:54;8.50;99.90
26909;DHT22;14477;51.038;4.588;2023-12-14T08:32:20;8.60;99.90
26909;DHT22;14477;51.038;4.588;2023-12-14T08:34:46;8.60;99.90
26909;DHT22;14477;51.038;4.588;2023-12-14T08:37:12;8.60;99.90
26909;DHT22;14477;51.038;4.588;2023-12-14T08:39:38;8.60;99.90
26909;DHT22;14477;51.038;4.588;2023-12-14T08:42:04;8.70;99.90
26909;DHT22;14477;51.038;4.588;2023-12-14T08:44:30;8.60;99.90
26909;DHT22;14477;51.038;4.588;2023-12-14T08:46:55;8.70;99.90
26909;DHT22;14477;51.038;4.588;2023-12-14T08:49:21;8.70;99.90
26909;DHT22;14477;51.038;4.588;2023-12-14T08:51:48;11.50;99.90
26909;DHT22;14477;51.038;4.588;2023-12-14T08:54:14;8.80;99.90
26909;DHT22;14477;51.038;4.588;2023-12-14T08:56:40;8.90;99.90
26909;DHT22;14477;51.038;4.588;2023-12-14T08:59:05;9.00;99.90
26909;DHT22;14477;51.038;4.588;2023-12-14T09:01:31;9.10;99.90
26909;DHT22;14477;51.038;4.588;2023-12-14T09:03:57;9.20;99.90
26909;DHT22;14477;51.038;4.588;2023-12-14T09:06:23;9.30;99.90
26909;DHT22;14477;51.038;4.588;2023-12-14T09:08:49;9.40;99.90
26909;DHT22;14477;51.038;4.588;2023-12-14T09:11:14;9.60;99.90
26909;DHT22;14477;51.038;4.588;2023-12-14T09:13:41;9.70;99.90
26909;DHT22;14477;51.038;4.588;2023-12-14T09:16:08;9.90;99.90
26909;DHT22;14477;51.038;4.588;2023-12-14T09:18:34;10.00;99.90
26909;DHT22;14477;51.038;4.588;2023-12-14T09:20:59;10.10;99.90
26909;DHT22;14477;51.038;4.588;2023-12-14T09:23:25;10.20;99.90
26909;DHT22;14477;51.038;4.588;2023-12-14T09:25:51;10.30;99.90
26909;DHT22;14477;51.038;4.588;2023-12-14T09:28:17;10.30;99.90
26909;DHT22;14477;51.038;4.588;2023-12-14T09:30:42;10.50;99.90
26909;DHT22;14477;51.038;4.588;2023-12-14T09:33:10;10.50;99.90
26909;DHT22;14477;51.038;4.588;2023-12-14T09:35:35;10.80;99.90
26909;DHT22;14477;51.038;4.588;2023-12-14T09:38:03;11.10;99.90
26909;DHT22;14477;51.038;4.588;2023-12-14T09:40:29;11.60;99.90
26909;DHT22;14477;51.038;4.588;2023-12-14T09:42:56;12.00;99.90
26909;DHT22;14477;51.038;4.588;2023-12-14T09:45:24;12.60;99.90
26909;DHT22;14477;51.038;4.588;2023-12-14T09:47:53;13.10;99.90
26909;DHT22;14477;51.038;4.588;2023-12-14T09:50:20;13.60;99.90
26909;DHT22;14477;51.038;4.588;2023-12-14T09:52:46;14.00;99.90
26909;DHT22;14477;51.038;4.588;2023-12-14T09:55:15;14.30;99.90
26909;DHT22;14477;51.038;4.588;2023-12-14T09:57:41;14.70;99.90
26909;DHT22;14477;51.038;4.588;2023-12-14T10:00:07;14.90;99.90
26909;DHT22;14477;51.038;4.588;2023-12-14T10:02:37;15.10;99.90
26909;DHT22;14477;51.038;4.588;2023-12-14T10:05:03;15.30;99.90
26909;DHT22;14477;51.038;4.588;2023-12-14T10:07:30;15.40;99.90
26909;DHT22;14477;51.038;4.588;2023-12-14T10:10:12;15.40;99.90
26909;DHT22;14477;51.038;4.588;2023-12-14T10:12:52;15.30;99.90
26909;DHT22;14477;51.038;4.588;2023-12-14T10:15:21;15.10;99.90
26909;DHT22;14477;51.038;4.588;2023-12-14T10:17:52;15.00;99.90
26909;DHT22;14477;51.038;4.588;2023-12-14T10:20:20;14.70;99.90
26909;DHT22;14477;51.038;4.588;2023-12-14T10:22:53;14.50;99.90
26909;DHT22;14477;51.038;4.588;2023-12-14T10:25:19;14.30;99.90
26909;DHT22;14477;51.038;4.588;2023-12-14T10:27:51;14.10;99.90
26909;DHT22;14477;51.038;4.588;2023-12-14T10:30:18;13.80;99.90
26909;DHT22;14477;51.038;4.588;2023-12-14T10:32:48;13.70;99.90
26909;DHT22;14477;51.038;4.588;2023-12-14T10:35:15;13.50;99.90
26909;DHT22;14477;51.038;4.588;2023-12-14T10:37:42;13.40;99.90
26909;DHT22;14477;51.038;4.588;2023-12-14T10:40:13;13.20;99.90
26909;DHT22;14477;51.038;4.588;2023-12-14T10:42:43;13.10;99.90
26909;DHT22;14477;51.038;4.588;2023-12-14T10:45:12;13.00;99.90
26909;DHT22;14477;51.038;4.588;2023-12-14T10:47:43;12.90;99.90
26909;DHT22;14477;51.038;4.588;2023-12-14T10:50:10;12.80;99.90
26909;DHT22;14477;51.038;4.588;2023-12-14T10:52:41;12.70;99.90
26909;DHT22;14477;51.038;4.588;2023-12-14T10:55:31;12.70;99.90
26909;DHT22;14477;51.038;4.588;2023-12-14T10:57:57;12.60;99.90
26909;DHT22;14477;51.038;4.588;2023-12-14T11:00:24;12.50;99.90
26909;DHT22;14477;51.038;4.588;2023-12-14T11:02:49;12.50;99.90
26909;DHT22;14477;51.038;4.588;2023-12-14T11:05:18;12.50;99.90
26909;DHT22;14477;51.038;4.588;2023-12-14T11:10:22;12.50;99.90
26909;DHT22;14477;51.038;4.588;2023-12-14T11:13:00;12.40;99.90
26909;DHT22;14477;51.038;4.588;2023-12-14T11:15:28;12.40;99.90
26909;DHT22;14477;51.038;4.588;2023-12-14T11:20:48;12.40;99.90
26909;DHT22;14477;51.038;4.588;2023-12-14T11:23:17;12.40;99.90
26909;DHT22;14477;51.038;4.588;2023-12-14T11:25:43;12.40;99.90
26909;DHT22;14477;51.038;4.588;2023-12-14T11:28:10;12.40;99.90
26909;DHT22;14477;51.038;4.588;2023-12-14T11:30:36;12.40;99.90
26909;DHT22;14477;51.038;4.588;2023-12-14T11:33:03;12.30;99.90
26909;DHT22;14477;51.038;4.588;2023-12-14T11:35:29;12.40;99.90
26909;DHT22;14477;51.038;4.588;2023-12-14T11:37:56;12.40;99.90
26909;DHT22;14477;51.038;4.588;2023-12-14T11:40:27;12.40;99.90
26909;DHT22;14477;51.038;4.588;2023-12-14T11:43:01;12.30;99.90
26909;DHT22;14477;51.038;4.588;2023-12-14T11:45:27;12.40;99.90
26909;DHT22;14477;51.038;4.588;2023-12-14T11:47:53;12.30;99.90
26909;DHT22;14477;51.038;4.588;2023-12-14T11:50:19;12.30;99.90
26909;DHT22;14477;51.038;4.588;2023-12-14T11:52:45;12.30;99.90
26909;DHT22;14477;51.038;4.588;2023-12-14T11:55:12;11.80;99.90
26909;DHT22;14477;51.038;4.588;2023-12-14T11:57:37;12.20;99.90
26909;DHT22;14477;51.038;4.588;2023-12-14T12:00:05;12.10;99.90
26909;DHT22;14477;51.038;4.588;2023-12-14T12:02:32;12.10;99.90
26909;DHT22;14477;51.038;4.588;2023-12-14T12:04:59;12.00;99.90
26909;DHT22;14477;51.038;4.588;2023-12-14T12:07:26;12.00;99.90
26909;DHT22;14477;51.038;4.588;2023-12-14T12:09:51;12.00;99.90
26909;DHT22;14477;51.038;4.588;2023-12-14T12:12:17;11.90;99.90
26909;DHT22;14477;51.038;4.588;2023-12-14T12:14:43;11.90;99.90
26909;DHT22;14477;51.038;4.588;2023-12-14T12:17:09;11.90;99.90
26909;DHT22;14477;51.038;4.588;2023-12-14T12:19:37;11.80;99.90
26909;DHT22;14477;51.038;4.588;2023-12-14T12:22:03;11.80;99.90
26909;DHT22;14477;51.038;4.588;2023-12-14T12:24:29;11.80;99.90
26909;DHT22;14477;51.038;4.588;2023-12-14T12:26:55;11.70;99.90
26909;DHT22;14477;51.038;4.588;2023-12-14T12:29:24;11.70;99.90
26909;DHT22;14477;51.038;4.588;2023-12-14T12:31:50;11.70;99.90
26909;DHT22;14477;51.038;4.588;2023-12-14T12:34:16;11.70;99.90
26909;DHT22;14477;51.038;4.588;2023-12-14T12:36:42;11.60;99.90
26909;DHT22;14477;51.038;4.588;2023-12-14T12:39:07;11.60;99.90
26909;DHT22;14477;51.038;4.588;2023-12-14T12:41:34;11.60;99.90
26909;DHT22;14477;51.038;4.588;2023-12-14T12:44:03;11.60;99.90
26909;DHT22;14477;51.038;4.588;2023-12-14T12:46:37;11.60;99.90
26909;DHT22;14477;51.038;4.588;2023-12-14T12:49:04;11.50;99.90
26909;DHT22;14477;51.038;4.588;2023-12-14T12:51:30;11.50;99.90
26909;DHT22;14477;51.038;4.588;2023-12-14T12:53:58;11.50;99.90
26909;DHT22;14477;51.038;4.588;2023-12-14T12:56:27;11.50;99.90
26909;DHT22;14477;51.038;4.588;2023-12-14T12:58:54;11.50;99.90
26909;DHT22;14477;51.038;4.588;2023-12-14T13:01:21;11.40;99.90
26909;DHT22;14477;51.038;4.588;2023-12-14T13:03:53;11.40;99.90
26909;DHT22;14477;51.038;4.588;2023-12-14T13:06:19;11.40;99.90
26909;DHT22;14477;51.038;4.588;2023-12-14T13:08:45;11.30;99.90
26909;DHT22;14477;51.038;4.588;2023-12-14T13:11:11;11.30;99.90
26909;DHT22;14477;51.038;4.588;2023-12-14T13:13:37;11.30;99.90
26909;DHT22;14477;51.038;4.588;2023-12-14T13:16:03;11.20;99.90
26909;DHT22;14477;51.038;4.588;2023-12-14T13:18:29;11.20;99.90
26909;DHT22;14477;51.038;4.588;2023-12-14T13:20:54;11.10;99.90
26909;DHT22;14477;51.038;4.588;2023-12-14T13:23:20;11.10;99.90
26909;DHT22;14477;51.038;4.588;2023-12-14T13:25:46;11.10;99.90
26909;DHT22;14477;51.038;4.588;2023-12-14T13:28:12;11.10;99.90
26909;DHT22;14477;51.038;4.588;2023-12-14T13:30:37;11.00;99.90
26909;DHT22;14477;51.038;4.588;2023-12-14T13:33:03;11.00;99.90
26909;DHT22;14477;51.038;4.588;2023-12-14T13:35:29;11.00;99.90
26909;DHT22;14477;51.038;4.588;2023-12-14T13:37:55;11.10;99.90
26909;DHT22;14477;51.038;4.588;2023-12-14T13:40:21;11.10;99.90
26909;DHT22;14477;51.038;4.588;2023-12-14T13:42:47;11.10;99.90
26909;DHT22;14477;51.038;4.588;2023-12-14T13:45:14;11.00;99.90
26909;DHT22;14477;51.038;4.588;2023-12-14T13:47:39;11.00;99.90
26909;DHT22;14477;51.038;4.588;2023-12-14T13:50:06;11.00;99.90
26909;DHT22;14477;51.038;4.588;2023-12-14T13:52:32;11.00;99.90
26909;DHT22;14477;51.038;4.588;2023-12-14T13:54:58;10.90;99.90
26909;DHT22;14477;51.038;4.588;2023-12-14T13:57:25;10.90;99.90
26909;DHT22;14477;51.038;4.588;2023-12-14T13:59:51;10.90;99.90
26909;DHT22;14477;51.038;4.588;2023-12-14T14:02:16;10.90;99.90
26909;DHT22;14477;51.038;4.588;2023-12-14T14:04:42;10.90;99.90
26909;DHT22;14477;51.038;4.588;2023-12-14T14:07:08;10.90;99.90
26909;DHT22;14477;51.038;4.588;2023-12-14T14:09:33;10.90;99.90
26909;DHT22;14477;51.038;4.588;2023-12-14T14:11:59;10.90;99.90
26909;DHT22;14477;51.038;4.588;2023-12-14T14:14:25;10.90;99.90
26909;DHT22;14477;51.038;4.588;2023-12-14T14:16:51;10.90;99.90
26909;DHT22;14477;51.038;4.588;2023-12-14T14:19:17;10.80;99.90
26909;DHT22;14477;51.038;4.588;2023-12-14T14:21:43;10.90;99.90
26909;DHT22;14477;51.038;4.588;2023-12-14T14:24:08;10.90;99.90
26909;DHT22;14477;51.038;4.588;2023-12-14T14:26:34;10.90;99.90
26909;DHT22;14477;51.038;4.588;2023-12-14T14:29:00;10.80;99.90
26909;DHT22;14477;51.038;4.588;2023-12-14T14:31:28;10.80;99.90
26909;DHT22;14477;51.038;4.588;2023-12-14T14:33:58;10.80;99.90
26909;DHT22;14477;51.038;4.588;2023-12-14T14:36:24;10.80;99.90
26909;DHT22;14477;51.038;4.588;2023-12-14T14:38:50;10.80;99.90
26909;DHT22;14477;51.038;4.588;2023-12-14T14:41:19;10.90;99.90
26909;DHT22;14477;51.038;4.588;2023-12-14T14:43:45;10.80;99.90
26909;DHT22;14477;51.038;4.588;2023-12-14T14:46:11;10.80;99.90
26909;DHT22;14477;51.038;4.588;2023-12-14T14:48:37;10.80;99.90
26909;DHT22;14477;51.038;4.588;2023-12-14T14:51:03;10.80;99.90
26909;DHT22;14477;51.038;4.588;2023-12-14T14:53:29;10.80;99.90
26909;DHT22;14477;51.038;4.588;2023-12-14T14:55:55;10.80;99.90
26909;DHT22;14477;51.038;4.588;2023-12-14T14:58:22;10.80;99.90
26909;DHT22;14477;51.038;4.588;2023-12-14T15:00:48;10.70;99.90
26909;DHT22;14477;51.038;4.588;2023-12-14T15:03:14;10.70;99.90
26909;DHT22;14477;51.038;4.588;2023-12-14T15:05:40;10.70;99.90
26909;DHT22;14477;51.038;4.588;2023-12-14T15:08:06;10.70;99.90
26909;DHT22;14477;51.038;4.588;2023-12-14T15:10:33;10.70;99.90
26909;DHT22;14477;51.038;4.588;2023-12-14T15:12:59;10.70;99.90
26909;DHT22;14477;51.038;4.588;2023-12-14T15:15:24;10.60;99.90
26909;DHT22;14477;51.038;4.588;2023-12-14T15:17:50;10.60;99.90
26909;DHT22;14477;51.038;4.588;2023-12-14T15:20:16;10.60;99.90
26909;DHT22;14477;51.038;4.588;2023-12-14T15:22:42;10.60;99.90
26909;DHT22;14477;51.038;4.588;2023-12-14T15:25:08;10.50;99.90
26909;DHT22;14477;51.038;4.588;2023-12-14T15:27:34;10.40;99.90
26909;DHT22;14477;51.038;4.588;2023-12-14T15:30:00;10.40;99.90
26909;DHT22;14477;51.038;4.588;2023-12-14T15:32:25;10.40;99.90
26909;DHT22;14477;51.038;4.588;2023-12-14T15:34:51;10.30;99.90